KAPF/APF METAR and TAF weather

Enter ICAO airport designator
Station Type Date Time Source
KAPF METAR 2024/04/23 02:53 UTC NOAA

KAPF 230253Z AUTO 03010G17KT 10SM CLR 22/16 A3005 RMK AO2 SLP174 T02220161 51020


Station Type Date Time Source
KAPF Decoded METAR 2024/04/23 02:53 UTC NOAA

NAPLES MUNICIPAL AIRPORT, FL, United States (KAPF) 26-09N 081-46W
Apr 22, 2024 - 10:53 PM EDT / 2024.04.23 0253 UTC
Wind: from the NNE (030 degrees) at 12 MPH (10 KT) gusting to 20 MPH (17 KT):0
Visibility: 10 mile(s):0
Sky conditions: clear
Temperature: 72.0 F (22.2 C)
Dew Point: 61.0 F (16.1 C)
Relative Humidity: 68%
Pressure (altimeter): 30.05 in. Hg (1017 hPa)
Pressure tendency: 0.06 inches (2.0 hPa) higher than three hours ago
ob: KAPF 230253Z AUTO 03010G17KT 10SM CLR 22/16 A3005 RMK AO2 SLP174 T02220161 51020
cycle: 3

Station Type Date Time Source
KAPF TAF 2024/04/23 03:46 UTC NOAA